CDT,Max TemperatureF,Mean TemperatureF,Min TemperatureF,Max Dew PointF,MeanDew PointF,Min DewpointF,Max Humidity, Mean Humidity, Min Humidity, Max Sea Level PressureIn, Mean Sea Level PressureIn, Min Sea Level PressureIn, Max VisibilityMiles, Mean VisibilityMiles, Min VisibilityMiles, Max Wind SpeedMPH, Mean Wind SpeedMPH, Max Gust SpeedMPH,PrecipitationIn, CloudCover, Events, WindDirDegrees
2013-7-1,82,66,51,52,46,41,82,50,23,30.22,30.17,30.13,10,10,7,16,6,22,0.00,0,,27
2013-7-2,84,68,51,50,46,43,76,47,23,30.20,30.15,30.08,10,10,8,13,6,16,0.00,0,,17
2013-7-3,86,70,55,52,48,45,72,46,25,30.14,30.05,29.95,10,10,5,17,8,24,0.00,0,,153
2013-7-4,93,76,60,54,49,45,68,39,19,30.00,29.95,29.87,10,10,10,24,14,31,0.00,0,,169
2013-7-5,96,82,69,57,56,54,64,43,26,29.92,29.86,29.78,10,10,10,28,19,33,0.00,0,,169
2013-7-6,98,84,71,61,57,52,69,43,23,29.88,29.83,29.77,10,10,10,32,21,40,0.00,1,,168
2013-7-7,102,88,73,61,58,54,65,39,21,29.94,29.89,29.83,10,10,10,25,17,33,0.00,0,,185
2013-7-8,102,86,71,63,60,55,69,41,22,30.02,29.97,29.90,10,10,9,22,15,31,0.00,1,,179
2013-7-9,109,91,73,70,62,55,78,48,17,30.02,29.94,29.85,10,10,6,29,15,48,1.30,1,Thunderstorm,192
2013-7-10,95,82,68,70,67,63,83,62,39,30.06,30.02,29.97,10,10,10,18,9,23,0.88,0,,71
2013-7-11,93,83,73,68,65,63,78,59,38,30.08,29.99,29.91,10,10,10,24,12,31,0.00,0,,128
2013-7-12,102,86,71,66,64,63,78,50,29,29.97,29.92,29.86,10,10,10,25,15,31,0.00,0,,159
2013-7-13,104,90,75,66,64,57,73,46,21,29.97,29.92,29.84,10,10,10,23,15,26,0.00,0,,171
2013-7-14,84,76,68,66,64,61,83,71,51,30.14,30.01,29.89,10,10,8,30,15,39,0.04,3,,163
2013-7-15,80,70,60,64,61,57,88,76,45,30.19,30.15,30.11,10,8,2,16,6,28,0.12,3,,95
2013-7-16,86,75,64,66,63,61,88,73,43,30.32,30.23,30.18,10,10,5,18,10,24,0.19,5,,159
2013-7-17,89,78,66,70,66,63,94,72,43,30.34,30.28,30.21,10,10,6,18,7,23,0.00,1,Thunderstorm,168
2013-7-18,93,80,66,68,64,61,94,61,36,30.23,30.12,29.99,10,10,6,26,12,36,0.00,1,,187
2013-7-19,98,84,69,66,64,61,83,54,30,30.05,29.96,29.86,10,10,10,18,11,31,0.00,1,Thunderstorm,183
2013-7-20,91,80,69,68,66,63,88,70,41,29.97,29.91,29.83,10,10,5,22,7,26,0.59,2,Thunderstorm,130
2013-7-21,86,78,69,72,68,64,88,75,58,29.93,29.88,29.80,10,10,7,13,7,16,0.38,4,,121
2013-7-22,96,84,71,72,67,55,94,66,25,29.90,29.84,29.80,10,9,3,25,10,31,0.01,3,Thunderstorm,144
2013-7-23,89,80,71,70,66,61,78,63,49,29.98,29.89,29.82,10,10,3,38,13,61,0.62,2,Thunderstorm,106
2013-7-24,87,76,64,66,63,57,88,67,35,30.11,30.05,29.96,10,10,1,13,8,17,0.00,1,,68
2013-7-25,82,74,66,73,67,63,89,79,65,30.08,30.04,29.96,10,10,6,21,8,26,0.76,4,Thunderstorm,147
2013-7-26,86,74,62,66,62,59,94,71,42,30.14,30.09,30.02,10,10,5,21,8,24,0.03,2,,28
2013-7-27,75,67,59,61,56,52,88,70,53,30.15,30.08,29.97,10,10,3,21,10,24,1.65,3,Thunderstorm,91
2013-7-28,68,64,59,63,59,55,94,87,82,30.08,30.00,29.96,10,10,5,20,12,25,1.23,8,Thunderstorm,111
2013-7-29,78,70,62,72,64,57,94,86,78,30.00,29.95,29.89,10,9,2,24,10,31,0.32,8,Thunderstorm,106
2013-7-30,80,73,66,66,66,64,94,81,61,30.13,30.07,30.00,10,8,1,12,7,,0.01,6,,30
2013-7-31,84,73,62,70,65,61,94,77,55,30.18,30.14,30.09,10,8,0,10,4,,0.00,2,Thunderstorm,139